createdAt,value
2018-08-16T00:02:40.539Z,69.06
2018-08-16T00:07:37.934Z,68.85
2018-08-16T00:12:35.326Z,68.07
2018-08-16T00:17:32.739Z,68.33
2018-08-16T00:22:30.148Z,68.76
2018-08-16T00:27:27.499Z,68.75
2018-08-16T00:32:25.370Z,68.54
2018-08-16T00:37:23.312Z,67.74
2018-08-16T00:42:20.719Z,68.72
2018-08-16T00:47:18.136Z,69.25
2018-08-16T00:52:15.512Z,69.34
2018-08-16T00:57:12.917Z,70.51
2018-08-16T01:02:10.327Z,69.90
2018-08-16T01:07:07.747Z,70.90
2018-08-16T01:12:05.176Z,71.14
2018-08-16T01:17:02.675Z,69.48
2018-08-16T01:22:00.140Z,69.43
2018-08-16T01:26:57.531Z,70.95
2018-08-16T01:31:54.981Z,69.28
2018-08-16T01:36:52.447Z,68.70
2018-08-16T01:41:49.899Z,71.23
2018-08-16T01:46:49.274Z,71.15
2018-08-16T01:51:48.438Z,72.41
2018-08-16T01:56:46.892Z,73.36
2018-08-16T02:01:44.311Z,73.46
2018-08-16T02:06:41.739Z,73.33
2018-08-16T02:11:39.163Z,74.12
2018-08-16T02:16:37.265Z,75.35
2018-08-16T02:21:35.035Z,75.33
2018-08-16T02:26:32.459Z,75.80
2018-08-16T02:31:30.067Z,76.28
2018-08-16T02:36:27.483Z,76.94
2018-08-16T02:41:24.912Z,77.68
2018-08-16T02:46:22.367Z,77.92
2018-08-16T02:51:19.776Z,79.29
2018-08-16T02:56:17.159Z,79.67
2018-08-16T03:01:14.571Z,78.76
2018-08-16T03:06:12.078Z,79.93
2018-08-16T03:11:09.461Z,80.99
2018-08-16T03:16:07.038Z,80.99
2018-08-16T03:21:04.575Z,81.04
2018-08-16T03:26:02.022Z,81.83
2018-08-16T03:30:59.499Z,82.83
2018-08-16T03:35:56.951Z,81.87
2018-08-16T03:40:54.440Z,81.71
2018-08-16T03:45:53.811Z,83.50
2018-08-16T03:50:51.264Z,82.35
2018-08-16T03:55:48.767Z,82.71
2018-08-16T04:00:46.228Z,83.70
2018-08-16T04:05:43.671Z,84.30
2018-08-16T04:10:41.120Z,85.50
2018-08-16T04:15:38.600Z,85.58
2018-08-16T04:20:36.081Z,86.20
2018-08-16T04:25:33.517Z,85.92
2018-08-16T04:30:30.921Z,85.60
2018-08-16T04:35:28.509Z,85.45
2018-08-16T04:40:25.935Z,85.78
2018-08-16T04:45:23.390Z,86.59
2018-08-16T04:50:21.452Z,86.54
2018-08-16T04:55:18.891Z,85.05
2018-08-16T05:00:16.375Z,84.08
2018-08-16T05:05:13.830Z,84.19
2018-08-16T05:10:11.281Z,84.03
2018-08-16T05:15:11.118Z,83.99
2018-08-16T05:20:12.130Z,83.74
2018-08-16T05:25:09.675Z,83.78
2018-08-16T05:30:09.611Z,82.64
2018-08-16T05:35:07.250Z,69.78
2018-08-16T05:40:06.426Z,62.17
2018-08-16T05:45:04.118Z,58.99
2018-08-16T05:50:02.626Z,59.88
2018-08-16T05:55:00.055Z,61.39
2018-08-16T05:59:57.503Z,63.94
2018-08-16T06:04:54.926Z,66.57
2018-08-16T06:09:52.336Z,67.19
2018-08-16T06:14:49.779Z,67.94
2018-08-16T06:19:48.249Z,66.85
2018-08-16T06:24:45.666Z,66.56
2018-08-16T06:29:43.124Z,66.88
2018-08-16T06:34:40.668Z,66.27
2018-08-16T06:39:38.114Z,64.45
2018-08-16T06:44:35.553Z,62.42
2018-08-16T06:49:40.138Z,62.06
2018-08-16T06:54:37.615Z,61.28
2018-08-16T06:59:35.071Z,61.72
2018-08-16T07:04:32.538Z,60.07
2018-08-16T07:09:29.974Z,59.41
2018-08-16T07:14:28.002Z,59.65
2018-08-16T07:19:31.522Z,58.51
2018-08-16T07:24:29.008Z,60.15
2018-08-16T07:29:26.468Z,57.45
2018-08-16T07:34:23.894Z,59.04
2018-08-16T07:39:21.374Z,58.98
2018-08-16T07:44:18.814Z,56.40
2018-08-16T07:49:21.880Z,56.57
2018-08-16T07:54:19.408Z,57.22
2018-08-16T07:59:16.811Z,53.65
2018-08-16T08:04:14.286Z,53.61
2018-08-16T08:09:11.921Z,55.23
2018-08-16T08:14:09.227Z,52.16
2018-08-16T08:19:09.590Z,51.74
2018-08-16T08:24:07.066Z,50.34
2018-08-16T08:29:04.487Z,50.85
2018-08-16T08:34:01.943Z,51.24
2018-08-16T08:38:59.402Z,52.72
2018-08-16T08:44:07.063Z,52.67
2018-08-16T08:49:07.673Z,53.36
2018-08-16T08:54:47.029Z,52.02
2018-08-16T08:59:44.474Z,49.85
2018-08-16T09:04:41.979Z,49.53
2018-08-16T09:10:49.979Z,47.33
2018-08-16T09:15:49.543Z,50.27
2018-08-16T09:20:46.999Z,48.99
2018-08-16T09:25:44.413Z,48.63
2018-08-16T09:30:53.187Z,47.97
2018-08-16T09:35:50.657Z,47.24
2018-08-16T09:40:48.107Z,47.94
2018-08-16T09:47:11.156Z,48.07
2018-08-16T09:52:09.455Z,47.78
2018-08-16T09:57:08.803Z,46.92
2018-08-16T10:02:07.566Z,46.84
2018-08-16T10:07:05.015Z,47.37
2018-08-16T10:12:02.850Z,47.95
2018-08-16T10:17:00.279Z,46.80
2018-08-16T10:21:57.994Z,45.03
2018-08-16T10:26:55.514Z,46.22
2018-08-16T10:31:52.949Z,47.19
2018-08-16T10:36:50.407Z,47.79
2018-08-16T10:41:47.858Z,44.95
2018-08-16T10:46:45.335Z,41.88
2018-08-16T10:51:43.663Z,43.91
2018-08-16T10:56:41.107Z,44.76
2018-08-16T11:01:38.682Z,44.14
2018-08-16T11:06:36.157Z,43.27
2018-08-16T11:11:33.707Z,43.47
2018-08-16T11:16:31.152Z,43.33
2018-08-16T11:21:28.586Z,43.65
2018-08-16T11:26:26.035Z,42.70
2018-08-16T11:31:23.475Z,42.50
2018-08-16T11:36:20.882Z,41.63
2018-08-16T11:41:18.342Z,42.88
2018-08-16T11:46:15.755Z,41.70
2018-08-16T11:51:13.172Z,42.50
2018-08-16T11:56:10.600Z,39.87
2018-08-16T12:01:08.196Z,41.15
2018-08-16T12:06:05.787Z,43.66
2018-08-16T12:11:03.241Z,40.43
2018-08-16T12:16:00.687Z,38.83
2018-08-16T12:20:58.240Z,42.37
2018-08-16T12:25:55.656Z,43.02
2018-08-16T12:30:53.115Z,41.37
2018-08-16T12:35:50.595Z,39.84
2018-08-16T12:40:50.109Z,40.16
2018-08-16T12:45:45.514Z,38.80
2018-08-16T12:50:49.584Z,38.02
2018-08-16T12:55:47.017Z,38.90
2018-08-16T13:00:44.443Z,39.36
2018-08-16T13:05:41.932Z,38.52
2018-08-16T13:10:39.344Z,39.13
2018-08-16T13:15:36.874Z,39.55
2018-08-16T13:20:34.297Z,37.83
2018-08-16T13:25:31.708Z,36.57
2018-08-16T13:30:29.173Z,38.03
2018-08-16T13:35:26.612Z,38.47
2018-08-16T13:40:24.055Z,38.84
2018-08-16T13:45:21.522Z,39.54
2018-08-16T13:50:19.436Z,38.07
2018-08-16T13:55:17.479Z,38.93
2018-08-16T14:00:14.883Z,39.01
2018-08-16T14:05:12.342Z,36.16
2018-08-16T14:10:09.846Z,37.04
2018-08-16T14:15:07.739Z,39.30
2018-08-16T14:20:06.721Z,39.58
2018-08-16T14:25:04.991Z,39.14
2018-08-16T14:30:02.499Z,39.10
2018-08-16T14:34:59.913Z,37.26
2018-08-16T14:39:57.339Z,37.24
2018-08-16T14:44:54.787Z,37.92
2018-08-16T14:49:53.396Z,38.76
2018-08-16T14:54:50.807Z,38.37
2018-08-16T14:59:48.253Z,38.00
2018-08-16T15:04:45.686Z,35.67
2018-08-16T15:09:43.102Z,35.75
2018-08-16T15:14:40.528Z,37.68
2018-08-16T15:19:41.812Z,37.54
2018-08-16T15:24:39.335Z,36.22
2018-08-16T15:29:36.763Z,37.29
2018-08-16T15:34:34.244Z,36.24
2018-08-16T15:39:31.660Z,35.44
2018-08-16T15:44:29.530Z,36.86
2018-08-16T15:49:31.018Z,37.58
2018-08-16T15:54:28.573Z,39.00
2018-08-16T15:59:25.996Z,38.19
2018-08-16T16:04:23.412Z,36.71
2018-08-16T16:09:24.483Z,36.36
2018-08-16T16:14:22.768Z,38.46
2018-08-16T16:19:28.610Z,38.61
2018-08-16T16:24:26.199Z,39.27
2018-08-16T16:29:23.640Z,40.43
2018-08-16T16:34:21.081Z,40.80
2018-08-16T16:39:18.551Z,41.40
2018-08-16T16:44:16.009Z,40.53
2018-08-16T16:49:25.514Z,40.08
2018-08-16T16:54:23.062Z,41.23
2018-08-16T16:59:20.522Z,40.99
2018-08-16T17:04:17.943Z,41.61
2018-08-16T17:09:15.358Z,40.21
2018-08-16T17:14:12.924Z,41.19
2018-08-16T17:19:12.557Z,40.74
2018-08-16T17:24:10.062Z,41.05
2018-08-16T17:29:07.576Z,41.51
2018-08-16T17:34:05.013Z,42.71
2018-08-16T17:39:02.699Z,41.20
2018-08-16T17:44:00.108Z,42.37
2018-08-16T17:48:57.566Z,42.41
2018-08-16T17:53:55.791Z,42.26
2018-08-16T17:58:53.274Z,42.88
2018-08-16T18:03:50.725Z,43.56
2018-08-16T18:08:48.161Z,42.89
2018-08-16T18:13:45.551Z,43.76
2018-08-16T18:18:43.010Z,45.65
2018-08-16T18:23:40.429Z,46.51
2018-08-16T18:28:37.876Z,47.16
2018-08-16T18:33:35.299Z,48.22
2018-08-16T18:38:32.710Z,48.92
2018-08-16T18:43:30.152Z,49.19
2018-08-16T18:48:27.603Z,48.59
2018-08-16T18:53:24.977Z,50.45
2018-08-16T18:58:22.422Z,52.29
2018-08-16T19:03:19.856Z,52.25
2018-08-16T19:08:17.312Z,53.99
2018-08-16T19:13:14.779Z,54.48
2018-08-16T19:18:12.194Z,55.92
2018-08-16T19:23:09.621Z,55.47
2018-08-16T19:28:07.047Z,55.62
2018-08-16T19:33:04.471Z,56.66
2018-08-16T19:38:01.863Z,57.37
2018-08-16T19:42:59.255Z,57.97
2018-08-16T19:47:56.719Z,59.16
2018-08-16T19:52:54.063Z,59.43
2018-08-16T19:57:51.476Z,59.53
2018-08-16T20:02:48.900Z,59.15
2018-08-16T20:07:46.292Z,60.20
2018-08-16T20:12:43.679Z,60.37
2018-08-16T20:17:41.103Z,60.21
2018-08-16T20:22:38.498Z,61.90
2018-08-16T20:27:35.915Z,61.74
2018-08-16T20:32:33.323Z,62.19
2018-08-16T20:37:30.758Z,62.47
2018-08-16T20:42:28.147Z,63.27
2018-08-16T20:47:25.583Z,63.65
2018-08-16T20:52:23.011Z,61.72
2018-08-16T20:57:20.447Z,63.20
2018-08-16T21:02:17.912Z,62.05
2018-08-16T21:07:15.291Z,62.05
2018-08-16T21:12:13.695Z,61.41
2018-08-16T21:17:11.199Z,62.21
2018-08-16T21:22:08.695Z,63.36
2018-08-16T21:27:06.122Z,63.31
2018-08-16T21:32:03.607Z,63.41
2018-08-16T21:37:01.025Z,63.91
2018-08-16T21:41:58.435Z,63.48
2018-08-16T21:46:55.902Z,64.06
2018-08-16T21:51:53.317Z,64.87
2018-08-16T21:56:50.746Z,65.47
2018-08-16T22:01:48.892Z,65.85
2018-08-16T22:07:13.244Z,66.19
2018-08-16T22:12:10.657Z,66.51
2018-08-16T22:17:08.055Z,66.84
2018-08-16T22:22:05.601Z,66.69
2018-08-16T22:27:03.059Z,67.29
2018-08-16T22:32:00.506Z,67.30
2018-08-16T22:36:57.898Z,67.79
2018-08-16T22:41:55.287Z,67.24
2018-08-16T22:46:52.693Z,67.55
2018-08-16T22:51:50.124Z,67.73
2018-08-16T22:56:47.516Z,68.02
2018-08-16T23:01:44.947Z,67.80
2018-08-16T23:06:42.389Z,67.74
2018-08-16T23:11:39.765Z,68.25
2018-08-16T23:16:39.285Z,67.92
2018-08-16T23:21:36.778Z,68.86
2018-08-16T23:26:34.175Z,69.33
2018-08-16T23:31:31.606Z,69.12
2018-08-16T23:36:28.998Z,69.27
2018-08-16T23:41:26.383Z,70.17
2018-08-16T23:46:23.792Z,69.25
2018-08-16T23:51:21.287Z,69.27
2018-08-16T23:56:18.678Z,69.61
